Time;durP1;ratioP1;P1;durP2;ratioP2;P2;SDS_P1;SDS_P2;PMS_P1;PMS_P2;Temp;Humidity;BMP_temperature;BMP_pressure;BME280_temperature;BME280_humidity;BME280_pressure;Samples;Min_cycle;Max_cycle;Signal;HPM_P1;HPM_P2
2023/12/14 00:00:19;;;;;;;;;;;;;;;7.47;92.90;94259.13;5113757;28;1047;-63
2023/12/14 00:02:45;;;;;;;;;;;;;;;7.31;93.55;94257.28;5113685;28;1032;-63
2023/12/14 00:05:11;;;;;;;;;;;;;;;7.29;93.43;94244.16;5113657;28;976;-63
2023/12/14 00:07:37;;;;;;;;;;;;;;;7.21;93.94;94252.94;5113568;28;973;-63
2023/12/14 00:10:05;;;;;;;;;;;;;;;7.16;94.56;94252.59;5113710;28;1914;-63
2023/12/14 00:12:31;;;;;;;;;;;;;;;7.14;94.21;94246.63;5113517;28;956;-62
2023/12/14 00:14:57;;;;;;;;;;;;;;;7.17;94.35;94256.06;5112527;28;995;-63
2023/12/14 00:17:23;;;;;;;;;;;;;;;7.17;94.74;94251.63;5112556;28;995;-63
2023/12/14 00:19:49;;;;;;;;;;;;;;;7.01;96.39;94252.38;5113753;28;1042;-63
2023/12/14 00:22:15;;;;;;;;;;;;;;;6.96;96.33;94248.53;5113405;28;1054;-63
2023/12/14 00:24:41;;;;;;;;;;;;;;;6.87;96.56;94249.50;5113420;28;1083;-64
2023/12/14 00:27:08;;;;;;;;;;;;;;;6.91;96.23;94250.88;5113480;28;1103;-62
2023/12/14 00:29:34;;;;;;;;;;;;;;;6.89;96.24;94258.19;5112039;28;1917;-63
2023/12/14 00:32:00;;;;;;;;;;;;;;;6.82;96.67;94244.69;5113479;28;1024;-63
2023/12/14 00:34:26;;;;;;;;;;;;;;;6.63;97.40;94249.25;5113339;28;1133;-63
2023/12/14 00:36:52;;;;;;;;;;;;;;;6.39;98.35;94242.00;5113610;28;1035;-62
2023/12/14 00:39:18;;;;;;;;;;;;;;;6.30;98.79;94242.09;5113210;28;1066;-62
2023/12/14 00:41:44;;;;;;;;;;;;;;;6.19;100.00;94248.53;5113488;28;1062;-63
2023/12/14 00:44:10;;;;;;;;;;;;;;;6.24;99.96;94251.53;5113592;28;1057;-62
2023/12/14 00:46:36;;;;;;;;;;;;;;;6.33;98.97;94263.03;5113169;28;1032;-63
2023/12/14 00:49:02;;;;;;;;;;;;;;;6.22;99.30;94256.16;5113134;28;1219;-63
2023/12/14 00:51:28;;;;;;;;;;;;;;;6.26;99.18;94273.47;5113405;28;1902;-63
2023/12/14 00:53:54;;;;;;;;;;;;;;;6.31;99.14;94273.81;5113021;28;1141;-63
2023/12/14 00:56:20;;;;;;;;;;;;;;;6.15;99.38;94269.22;5113103;28;1104;-63
2023/12/14 00:58:46;;;;;;;;;;;;;;;6.16;100.00;94270.06;5111967;28;1055;-62
2023/12/14 01:01:11;;;;;;;;;;;;;;;6.30;99.49;94274.81;5113210;28;1051;-63
2023/12/14 01:03:38;;;;;;;;;;;;;;;6.41;96.75;94274.53;5113172;28;1137;-62
2023/12/14 01:06:04;;;;;;;;;;;;;;;6.40;96.62;94278.19;5113053;28;1024;-63
2023/12/14 01:08:30;;;;;;;;;;;;;;;6.36;96.37;94265.38;5113038;28;1056;-63
2023/12/14 01:10:56;;;;;;;;;;;;;;;6.40;96.22;94259.59;5112962;28;1990;-63
2023/12/14 01:13:21;;;;;;;;;;;;;;;6.34;96.19;94262.88;5113107;28;999;-63
2023/12/14 01:15:48;;;;;;;;;;;;;;;6.36;96.67;94266.22;5113364;28;1044;-62
2023/12/14 01:18:14;;;;;;;;;;;;;;;6.38;96.49;94260.75;5113033;28;968;-62
2023/12/14 01:20:40;;;;;;;;;;;;;;;6.23;96.27;94258.66;5115943;28;1054;-63
2023/12/14 01:23:06;;;;;;;;;;;;;;;6.31;97.06;94255.22;5115466;28;1043;-63
2023/12/14 01:25:32;;;;;;;;;;;;;;;6.42;96.09;94254.13;5115332;28;1052;-63
2023/12/14 01:27:58;;;;;;;;;;;;;;;6.31;95.63;94257.88;5116542;28;1095;-62
2023/12/14 01:30:24;;;;;;;;;;;;;;;6.36;95.53;94268.88;5116426;28;1906;-63
2023/12/14 01:32:50;;;;;;;;;;;;;;;6.36;96.02;94247.63;5116570;28;969;-62
2023/12/14 01:35:16;;;;;;;;;;;;;;;6.42;96.74;94262.91;5116403;28;1035;-63
2023/12/14 01:37:42;;;;;;;;;;;;;;;6.19;96.62;94248.53;5116366;28;1055;-62
2023/12/14 01:40:08;;;;;;;;;;;;;;;6.14;97.21;94258.75;5115168;28;1005;-62
2023/12/14 01:42:34;;;;;;;;;;;;;;;6.30;96.29;94258.88;5116453;27;1026;-63
2023/12/14 01:45:00;;;;;;;;;;;;;;;6.36;95.29;94244.16;5116522;28;1007;-63
2023/12/14 01:47:26;;;;;;;;;;;;;;;6.29;94.37;94251.91;5115976;28;1851;-63
2023/12/14 01:49:52;;;;;;;;;;;;;;;6.18;94.67;94252.97;5116118;28;1975;-63
2023/12/14 01:52:17;;;;;;;;;;;;;;;6.12;95.20;94242.16;5115959;28;1027;-62
2023/12/14 01:54:44;;;;;;;;;;;;;;;6.13;96.41;94235.84;5115923;28;1165;-62
2023/12/14 01:57:09;;;;;;;;;;;;;;;6.16;95.34;94236.38;5116234;27;960;-63
2023/12/14 01:59:35;;;;;;;;;;;;;;;6.06;97.14;94225.06;5116104;28;967;-63
2023/12/14 02:02:02;;;;;;;;;;;;;;;5.88;98.34;94241.00;5116141;28;971;-62
2023/12/14 02:04:28;;;;;;;;;;;;;;;5.98;97.47;94231.13;5114852;28;973;-63
2023/12/14 02:06:54;;;;;;;;;;;;;;;5.90;97.02;94231.06;5115785;28;1059;-63
2023/12/14 02:09:20;;;;;;;;;;;;;;;5.82;97.80;94230.97;5115591;28;1990;-63
2023/12/14 02:11:46;;;;;;;;;;;;;;;5.74;96.37;94215.00;5115936;28;1040;-63
2023/12/14 02:14:12;;;;;;;;;;;;;;;5.77;98.15;94220.03;5114390;28;1020;-63
2023/12/14 02:16:38;;;;;;;;;;;;;;;5.98;97.67;94214.41;5115932;28;1028;-63
2023/12/14 02:19:05;;;;;;;;;;;;;;;6.02;96.36;94200.66;5114433;28;1015;-63
2023/12/14 02:21:31;;;;;;;;;;;;;;;5.97;95.05;94207.41;5115719;28;1051;-62
2023/12/14 02:23:57;;;;;;;;;;;;;;;5.54;95.73;94203.75;5115832;28;1031;-63
2023/12/14 02:26:23;;;;;;;;;;;;;;;5.43;97.66;94199.53;5115617;28;1048;-62
2023/12/14 02:28:49;;;;;;;;;;;;;;;5.42;97.40;94195.19;5115532;28;1046;-62
2023/12/14 02:31:15;;;;;;;;;;;;;;;5.53;97.21;94202.91;5115213;28;1984;-63
2023/12/14 02:33:41;;;;;;;;;;;;;;;5.62;96.64;94198.53;5115363;28;976;-63
2023/12/14 02:36:07;;;;;;;;;;;;;;;5.61;96.31;94194.19;5115270;28;977;-62
2023/12/14 02:38:33;;;;;;;;;;;;;;;5.57;96.76;94214.88;5115068;28;965;-61
2023/12/14 02:40:59;;;;;;;;;;;;;;;5.60;96.76;94205.81;5114140;28;1044;-62
2023/12/14 02:43:25;;;;;;;;;;;;;;;5.42;96.96;94201.31;5115259;28;992;-62
2023/12/14 02:45:51;;;;;;;;;;;;;;;5.15;98.01;94204.09;5115206;27;1020;-62
2023/12/14 02:48:17;;;;;;;;;;;;;;;5.07;100.00;94197.72;5113707;28;1039;-62
2023/12/14 02:50:43;;;;;;;;;;;;;;;5.30;99.06;94207.88;5114857;28;1913;-62
2023/12/14 02:53:09;;;;;;;;;;;;;;;5.34;99.64;94205.75;5115185;28;956;-63
2023/12/14 02:55:35;;;;;;;;;;;;;;;5.06;99.54;94197.84;5114695;28;1146;-62
2023/12/14 02:58:00;;;;;;;;;;;;;;;5.16;100.00;94198.63;5114932;28;1035;-62
2023/12/14 03:00:26;;;;;;;;;;;;;;;5.24;99.56;94204.00;5114923;28;1067;-62
2023/12/14 03:02:52;;;;;;;;;;;;;;;5.10;98.61;94193.91;5114758;28;972;-62
2023/12/14 03:05:18;;;;;;;;;;;;;;;5.22;98.57;94186.59;5114912;28;984;-63
2023/12/14 03:07:44;;;;;;;;;;;;;;;5.18;99.57;94199.31;5114533;28;1063;-63
2023/12/14 03:10:10;;;;;;;;;;;;;;;5.16;100.00;94196.00;5114734;28;1910;-62
2023/12/14 03:12:36;;;;;;;;;;;;;;;5.11;100.00;94194.78;5113303;28;1032;-62
2023/12/14 03:15:02;;;;;;;;;;;;;;;5.44;100.00;94196.72;5114616;28;1039;-63
2023/12/14 03:17:28;;;;;;;;;;;;;;;5.61;98.98;94200.31;5114652;28;1043;-62
2023/12/14 03:19:54;;;;;;;;;;;;;;;5.60;98.49;94188.06;5114475;28;968;-62
2023/12/14 03:22:20;;;;;;;;;;;;;;;5.60;98.85;94185.41;5114214;28;1012;-63
2023/12/14 03:24:46;;;;;;;;;;;;;;;5.68;98.89;94188.13;5114251;28;1020;-62
2023/12/14 03:27:12;;;;;;;;;;;;;;;5.73;98.07;94200.06;5114445;28;1000;-63
2023/12/14 03:29:38;;;;;;;;;;;;;;;5.41;98.80;94201.50;5114252;28;2013;-62
2023/12/14 03:32:04;;;;;;;;;;;;;;;5.38;99.84;94209.75;5114230;28;991;-62
2023/12/14 03:34:30;;;;;;;;;;;;;;;5.44;99.73;94198.53;5114143;28;1016;-63
2023/12/14 03:36:56;;;;;;;;;;;;;;;5.67;100.00;94217.44;5114397;28;1042;-61
2023/12/14 03:39:22;;;;;;;;;;;;;;;6.04;99.83;94203.16;5113985;28;1035;-62
2023/12/14 03:41:48;;;;;;;;;;;;;;;6.12;99.60;94203.19;5113734;28;1023;-62
2023/12/14 03:44:14;;;;;;;;;;;;;;;6.17;100.00;94200.06;5113890;28;1059;-62
2023/12/14 03:46:40;;;;;;;;;;;;;;;6.20;99.11;94210.34;5114044;28;1043;-63
2023/12/14 03:49:06;;;;;;;;;;;;;;;6.16;98.55;94209.00;5113787;28;1068;-62
2023/12/14 03:51:32;;;;;;;;;;;;;;;6.16;98.74;94199.22;5113676;28;1902;-62
2023/12/14 03:53:58;;;;;;;;;;;;;;;5.99;99.57;94190.34;5113993;28;1212;-63
2023/12/14 03:56:24;;;;;;;;;;;;;;;6.14;98.75;94182.63;5113927;28;963;-63
2023/12/14 03:58:49;;;;;;;;;;;;;;;6.23;97.72;94188.81;5113693;28;1277;-63
2023/12/14 04:01:19;;;;;;;;;;;;;;;6.27;97.70;94186.69;5113633;28;1021;-61
2023/12/14 04:03:45;;;;;;;;;;;;;;;6.19;98.07;94179.50;5114043;28;1264;-62
2023/12/14 04:06:14;;;;;;;;;;;;;;;5.78;97.66;94180.06;5113600;28;1054;-63
2023/12/14 04:08:40;;;;;;;;;;;;;;;5.64;99.21;94181.47;5113867;28;1035;-61
2023/12/14 04:11:06;;;;;;;;;;;;;;;5.60;99.86;94192.53;5113846;28;1992;-62
2023/12/14 04:13:33;;;;;;;;;;;;;;;5.81;99.19;94182.41;5113491;28;1013;-65
2023/12/14 04:15:59;;;;;;;;;;;;;;;5.93;99.83;94182.16;5113714;28;1046;-62
2023/12/14 04:18:25;;;;;;;;;;;;;;;6.10;97.66;94181.28;5113553;28;976;-64
2023/12/14 04:20:51;;;;;;;;;;;;;;;6.03;96.71;94191.72;5113455;28;979;-63
2023/12/14 04:23:18;;;;;;;;;;;;;;;6.00;96.97;94184.06;5112464;28;1011;-61
2023/12/14 04:25:44;;;;;;;;;;;;;;;5.89;97.24;94186.94;5113493;28;1040;-63
2023/12/14 04:28:09;;;;;;;;;;;;;;;5.71;99.34;94188.78;5113740;28;1056;-63
2023/12/14 04:30:35;;;;;;;;;;;;;;;5.71;99.47;94186.13;5113390;28;1905;-62
2023/12/14 04:33:02;;;;;;;;;;;;;;;5.88;97.91;94187.94;5113456;28;1020;-61
2023/12/14 04:35:28;;;;;;;;;;;;;;;5.81;98.66;94195.66;5113287;28;1032;-63
2023/12/14 04:37:53;;;;;;;;;;;;;;;5.98;98.04;94187.88;5113588;28;1004;-61
2023/12/14 04:40:19;;;;;;;;;;;;;;;5.79;99.26;94191.53;5113197;28;1031;-61
2023/12/14 04:42:45;;;;;;;;;;;;;;;5.88;97.33;94201.19;5113194;28;1111;-62
2023/12/14 04:45:12;;;;;;;;;;;;;;;6.17;99.39;94179.66;5113151;28;1017;-61
2023/12/14 04:47:38;;;;;;;;;;;;;;;6.38;98.92;94186.41;5113056;28;1076;-61
2023/12/14 04:50:04;;;;;;;;;;;;;;;6.11;96.45;94188.28;5112985;28;1985;-61
2023/12/14 04:52:31;;;;;;;;;;;;;;;6.24;97.46;94201.09;5113382;28;980;-62
2023/12/14 04:54:56;;;;;;;;;;;;;;;6.05;97.83;94200.34;5115005;28;1157;-64
2023/12/14 04:57:22;;;;;;;;;;;;;;;5.93;97.67;94206.84;5117275;28;1047;-64
2023/12/14 04:59:48;;;;;;;;;;;;;;;5.84;99.19;94207.78;5117222;28;999;-63
2023/12/14 05:02:14;;;;;;;;;;;;;;;5.74;100.00;94199.94;5117055;28;1027;-64
2023/12/14 05:04:40;;;;;;;;;;;;;;;5.90;98.82;94201.03;5116960;28;1030;-63
2023/12/14 05:07:06;;;;;;;;;;;;;;;6.03;98.25;94199.66;5117028;28;1082;-63
2023/12/14 05:09:32;;;;;;;;;;;;;;;5.97;97.70;94205.56;5116777;28;1956;-63
2023/12/14 05:11:58;;;;;;;;;;;;;;;5.95;97.89;94206.69;5115814;28;1028;-63
2023/12/14 05:14:24;;;;;;;;;;;;;;;5.94;98.06;94215.63;5117077;28;1076;-63
2023/12/14 05:16:51;;;;;;;;;;;;;;;6.08;97.10;94211.63;5117070;28;1047;-63
2023/12/14 05:19:17;;;;;;;;;;;;;;;5.79;94.95;94212.75;5116656;28;1043;-63
2023/12/14 05:21:43;;;;;;;;;;;;;;;5.46;100.00;94208.00;5116930;28;1051;-63
2023/12/14 05:24:09;;;;;;;;;;;;;;;5.67;100.00;94213.00;5116900;28;963;-63
2023/12/14 05:26:35;;;;;;;;;;;;;;;5.93;99.19;94206.03;5116875;28;1051;-61
2023/12/14 05:29:01;;;;;;;;;;;;;;;5.94;97.95;94210.34;5116598;28;1028;-61
2023/12/14 05:31:27;;;;;;;;;;;;;;;5.83;97.45;94203.47;5116775;28;1909;-61
2023/12/14 05:33:53;;;;;;;;;;;;;;;5.94;97.28;94197.06;5116540;27;983;-61
2023/12/14 05:36:19;;;;;;;;;;;;;;;5.99;96.79;94205.44;5115307;28;1039;-62
2023/12/14 05:38:45;;;;;;;;;;;;;;;5.97;97.50;94210.06;5116476;28;1103;-61
2023/12/14 05:41:11;;;;;;;;;;;;;;;5.83;98.50;94209.59;5116626;28;1058;-62
2023/12/14 05:43:37;;;;;;;;;;;;;;;5.55;97.76;94210.72;5116247;28;1017;-61
2023/12/14 05:46:03;;;;;;;;;;;;;;;5.50;99.53;94218.28;5116302;28;1011;-62
2023/12/14 05:48:29;;;;;;;;;;;;;;;5.41;100.00;94217.41;5115896;28;1321;-62
2023/12/14 05:50:56;;;;;;;;;;;;;;;5.66;100.00;94221.09;5115212;28;2000;-62
2023/12/14 05:53:22;;;;;;;;;;;;;;;5.97;99.06;94232.09;5116229;28;976;-61
2023/12/14 05:55:48;;;;;;;;;;;;;;;6.04;97.67;94213.75;5114961;28;1229;-61
2023/12/14 05:58:14;;;;;;;;;;;;;;;5.89;97.43;94223.25;5116149;28;1066;-61
2023/12/14 06:00:40;;;;;;;;;;;;;;;5.71;97.51;94225.91;5116149;28;1055;-61
2023/12/14 06:03:06;;;;;;;;;;;;;;;5.52;98.31;94227.78;5115990;28;1052;-61
2023/12/14 06:05:32;;;;;;;;;;;;;;;5.50;99.53;94235.03;5115227;28;968;-61
2023/12/14 06:07:58;;;;;;;;;;;;;;;5.58;99.37;94226.34;5116034;28;961;-61
2023/12/14 06:10:24;;;;;;;;;;;;;;;5.75;99.19;94235.22;5115631;28;1909;-61
2023/12/14 06:12:50;;;;;;;;;;;;;;;5.76;98.88;94234.25;5115666;28;1107;-61
2023/12/14 06:15:16;;;;;;;;;;;;;;;5.72;98.84;94244.34;5115649;28;1020;-61
2023/12/14 06:17:42;;;;;;;;;;;;;;;5.84;98.37;94252.88;5115961;28;1035;-63
2023/12/14 06:20:08;;;;;;;;;;;;;;;5.82;99.10;94253.06;5115644;28;1052;-62
2023/12/14 06:22:37;;;;;;;;;;;;;;;5.90;98.59;94254.09;5115556;28;1079;-63
2023/12/14 06:25:04;;;;;;;;;;;;;;;5.80;99.82;94255.00;5115640;28;984;-63
2023/12/14 06:27:30;;;;;;;;;;;;;;;5.91;99.51;94261.06;5115312;28;1021;-62
2023/12/14 06:29:56;;;;;;;;;;;;;;;5.72;98.58;94260.25;5115241;28;1997;-63
2023/12/14 06:32:22;;;;;;;;;;;;;;;5.81;99.73;94259.34;5115210;28;964;-62
2023/12/14 06:34:48;;;;;;;;;;;;;;;5.94;98.43;94250.97;5115598;27;972;-62
2023/12/14 06:37:14;;;;;;;;;;;;;;;6.23;96.67;94252.53;5115234;28;1106;-62
2023/12/14 06:39:41;;;;;;;;;;;;;;;6.18;97.24;94250.31;5115769;28;1035;-62
2023/12/14 06:42:07;;;;;;;;;;;;;;;6.24;97.38;94259.47;5115074;28;1072;-62
2023/12/14 06:44:33;;;;;;;;;;;;;;;6.32;97.12;94261.34;5115342;28;1058;-63
2023/12/14 06:46:59;;;;;;;;;;;;;;;6.45;96.49;94275.06;5114977;28;1222;-63
2023/12/14 06:49:25;;;;;;;;;;;;;;;6.25;97.34;94269.94;5115046;28;1004;-63
2023/12/14 06:51:51;;;;;;;;;;;;;;;6.39;96.80;94273.88;5115212;28;1969;-62
2023/12/14 06:54:17;;;;;;;;;;;;;;;6.72;97.09;94282.00;5114939;28;1204;-63
2023/12/14 06:56:43;;;;;;;;;;;;;;;6.83;95.79;94289.69;5115139;28;976;-63
2023/12/14 06:59:09;;;;;;;;;;;;;;;6.95;95.74;94287.59;5114891;28;1000;-63
2023/12/14 07:01:35;;;;;;;;;;;;;;;7.04;95.41;94283.97;5113581;28;1032;-63
2023/12/14 07:04:03;;;;;;;;;;;;;;;7.12;95.64;94299.09;5114676;28;1043;-63
2023/12/14 07:06:29;;;;;;;;;;;;;;;7.06;96.79;94296.25;5114809;28;1073;-62
2023/12/14 07:08:55;;;;;;;;;;;;;;;6.94;98.87;94293.88;5114825;28;1003;-63
2023/12/14 07:11:21;;;;;;;;;;;;;;;7.18;97.23;94298.47;5114573;28;1910;-61
2023/12/14 07:13:47;;;;;;;;;;;;;;;7.47;95.18;94294.53;5114912;28;1007;-62
2023/12/14 07:16:17;;;;;;;;;;;;;;;7.49;95.41;94292.53;5114287;28;1143;-62
2023/12/14 07:18:44;;;;;;;;;;;;;;;7.57;95.94;94286.41;5113974;28;980;-62
2023/12/14 07:21:10;;;;;;;;;;;;;;;7.67;95.16;94288.94;5114549;28;1052;-61
2023/12/14 07:23:37;;;;;;;;;;;;;;;7.72;96.20;94292.78;5114436;28;1083;-62
2023/12/14 07:26:03;;;;;;;;;;;;;;;7.87;94.45;94281.47;5114439;28;1059;-61
2023/12/14 07:28:29;;;;;;;;;;;;;;;7.97;94.85;94282.16;5114659;28;1036;-62
2023/12/14 07:30:55;;;;;;;;;;;;;;;8.01;95.94;94289.63;5114596;28;1894;-62
2023/12/14 07:33:21;;;;;;;;;;;;;;;8.10;95.06;94289.59;5114152;28;992;-62
2023/12/14 07:35:47;;;;;;;;;;;;;;;8.14;95.99;94304.28;5114131;28;1017;-62
2023/12/14 07:38:13;;;;;;;;;;;;;;;8.28;95.02;94306.25;5147242;27;1078;-61
2023/12/14 07:40:40;;;;;;;;;;;;;;;8.40;93.51;94307.59;5114203;28;976;-62
2023/12/14 07:43:06;;;;;;;;;;;;;;;8.56;94.27;94305.94;5114091;28;1011;-62
2023/12/14 07:45:33;;;;;;;;;;;;;;;8.65;93.61;94312.06;5114232;28;1044;-62
2023/12/14 07:47:59;;;;;;;;;;;;;;;8.69;93.83;94300.91;5113797;28;1341;-62
2023/12/14 07:50:25;;;;;;;;;;;;;;;8.68;92.38;94296.56;5114054;28;1909;-61
2023/12/14 07:52:52;;;;;;;;;;;;;;;8.88;92.65;94294.34;5113852;28;1048;-62
2023/12/14 07:55:18;;;;;;;;;;;;;;;9.18;90.81;94300.75;5113957;28;1209;-62
2023/12/14 07:57:44;;;;;;;;;;;;;;;9.44;89.90;94288.94;5113917;28;1067;-63
2023/12/14 08:00:10;;;;;;;;;;;;;;;9.41;90.72;94283.09;5113744;28;1033;-63
2023/12/14 08:02:37;;;;;;;;;;;;;;;9.47;90.19;94288.59;5114039;28;977;-61
2023/12/14 08:05:03;;;;;;;;;;;;;;;9.50;89.45;94284.72;5113956;28;1059;-60
2023/12/14 08:07:31;;;;;;;;;;;;;;;9.51;89.58;94281.88;5113842;28;980;-61
2023/12/14 08:09:57;;;;;;;;;;;;;;;9.58;89.19;94274.84;5113766;28;1998;-60
2023/12/14 08:12:23;;;;;;;;;;;;;;;9.65;89.54;94285.63;5113561;28;1036;-60
2023/12/14 08:14:50;;;;;;;;;;;;;;;9.79;88.98;94276.06;5113622;28;1104;-60
2023/12/14 08:17:16;;;;;;;;;;;;;;;9.73;90.22;94274.91;5113567;28;1040;-60
2023/12/14 08:19:42;;;;;;;;;;;;;;;9.77;90.21;94273.56;5113500;28;1020;-61
2023/12/14 08:22:11;;;;;;;;;;;;;;;9.84;89.86;94283.50;5113942;28;1048;-61
2023/12/14 08:24:37;;;;;;;;;;;;;;;9.77;89.91;94294.91;5113515;28;1060;-61
2023/12/14 08:27:03;;;;;;;;;;;;;;;9.73;90.24;94287.41;5113700;28;1034;-60
2023/12/14 08:29:29;;;;;;;;;;;;;;;9.71;90.17;94281.44;5116098;28;1099;-60
2023/12/14 08:31:57;;;;;;;;;;;;;;;9.59;90.54;94275.66;5117894;28;1900;-60
2023/12/14 08:34:23;;;;;;;;;;;;;;;9.67;90.69;94278.28;5117929;28;968;-61
2023/12/14 08:36:49;;;;;;;;;;;;;;;9.80;90.68;94282.22;5117954;28;989;-60
2023/12/14 08:39:15;;;;;;;;;;;;;;;9.85;90.77;94267.31;5117755;28;1020;-60
2023/12/14 08:41:41;;;;;;;;;;;;;;;9.90;90.37;94251.59;5117624;28;956;-60
2023/12/14 08:44:08;;;;;;;;;;;;;;;9.91;89.74;94241.75;5117390;28;1031;-61
2023/12/14 08:46:40;;;;;;;;;;;;;;;10.00;90.25;94245.16;5117397;28;1071;-60
2023/12/14 08:49:39;;;;;;;;;;;;;;;10.10;88.92;94241.25;5095075;28;1154;-59
2023/12/14 08:52:05;;;;;;;;;;;;;;;10.02;90.63;94236.00;5076876;28;993;-60
2023/12/14 08:54:31;;;;;;;;;;;;;;;10.06;89.37;94234.59;5084135;28;1162;-60
2023/12/14 08:56:58;;;;;;;;;;;;;;;10.09;89.59;94228.91;5096833;28;971;-60
2023/12/14 08:59:24;;;;;;;;;;;;;;;10.05;89.68;94229.44;5096916;28;1051;-60
2023/12/14 09:01:50;;;;;;;;;;;;;;;10.13;89.92;94232.03;5096967;28;1036;-60
2023/12/14 09:04:16;;;;;;;;;;;;;;;10.16;89.98;94226.34;5096898;28;996;-60
2023/12/14 09:06:44;;;;;;;;;;;;;;;10.33;89.71;94216.38;5096669;28;1032;-60
2023/12/14 09:09:11;;;;;;;;;;;;;;;10.21;89.30;94210.59;5096517;28;1028;-60
2023/12/14 09:11:37;;;;;;;;;;;;;;;10.40;88.12;94203.13;5096802;28;1990;-60
2023/12/14 09:14:03;;;;;;;;;;;;;;;10.46;86.47;94211.22;5096608;28;1118;-60
2023/12/14 09:16:29;;;;;;;;;;;;;;;10.53;84.77;94222.00;5096711;28;1019;-60
2023/12/14 09:18:54;;;;;;;;;;;;;;;10.37;85.09;94230.19;5096426;28;1028;-60
2023/12/14 09:21:20;;;;;;;;;;;;;;;10.35;85.71;94241.06;5096376;28;1047;-60
2023/12/14 09:23:47;;;;;;;;;;;;;;;10.40;86.64;94235.19;5096362;28;920;-59
2023/12/14 09:26:13;;;;;;;;;;;;;;;10.27;87.32;94236.59;5096521;28;1362;-60
2023/12/14 09:28:39;;;;;;;;;;;;;;;10.34;88.08;94234.88;5096535;28;1044;-59
2023/12/14 09:31:05;;;;;;;;;;;;;;;10.39;88.22;94246.88;5096407;28;2051;-59
2023/12/14 09:33:31;;;;;;;;;;;;;;;10.44;88.82;94234.63;5096125;28;1236;-60
2023/12/14 09:35:57;;;;;;;;;;;;;;;10.44;89.47;94241.81;5096216;28;1058;-60
2023/12/14 09:38:23;;;;;;;;;;;;;;;10.54;88.88;94240.50;5096305;28;1048;-59
2023/12/14 09:40:49;;;;;;;;;;;;;;;10.62;88.40;94233.44;5095109;28;1051;-59
2023/12/14 09:43:15;;;;;;;;;;;;;;;10.60;88.36;94235.47;5096127;28;976;-60
2023/12/14 09:45:44;;;;;;;;;;;;;;;10.74;86.83;94230.13;5095946;28;1052;-59
2023/12/14 09:48:11;;;;;;;;;;;;;;;10.83;85.47;94213.97;5095811;28;1115;-60
2023/12/14 09:50:38;;;;;;;;;;;;;;;10.91;84.73;94208.53;5104612;28;1914;-60
2023/12/14 09:53:04;;;;;;;;;;;;;;;10.92;85.19;94210.19;5116257;27;1048;-62
2023/12/14 09:55:31;;;;;;;;;;;;;;;10.98;84.86;94217.47;5115947;28;1157;-61
2023/12/14 09:57:57;;;;;;;;;;;;;;;11.07;84.54;94216.34;5116210;28;968;-59
2023/12/14 10:00:33;;;;;;;;;;;;;;;11.11;85.14;94222.97;5116286;28;1039;-61
2023/12/14 10:03:17;;;;;;;;;;;;;;;11.18;84.28;94217.72;5115944;28;1108;-59
2023/12/14 10:05:43;;;;;;;;;;;;;;;11.35;82.95;94225.53;5115975;28;968;-62
2023/12/14 10:08:09;;;;;;;;;;;;;;;11.46;82.55;94222.38;5116031;28;1035;-62
2023/12/14 10:10:35;;;;;;;;;;;;;;;11.47;81.97;94227.50;5116030;28;1980;-62
2023/12/14 10:13:01;;;;;;;;;;;;;;;11.49;82.38;94220.13;5116021;28;1015;-62
2023/12/14 10:15:27;;;;;;;;;;;;;;;11.50;81.35;94215.63;5115669;28;1040;-62
2023/12/14 10:17:54;;;;;;;;;;;;;;;11.56;81.74;94232.75;5115574;28;1092;-61
2023/12/14 10:20:23;;;;;;;;;;;;;;;11.60;81.63;94224.16;5115632;28;1039;-62
2023/12/14 10:22:49;;;;;;;;;;;;;;;11.59;81.92;94237.72;5115869;28;968;-62
2023/12/14 10:25:17;;;;;;;;;;;;;;;11.60;81.45;94232.19;5115420;28;1036;-61
2023/12/14 10:27:46;;;;;;;;;;;;;;;11.61;81.42;94244.56;5115671;28;1052;-60
2023/12/14 10:30:12;;;;;;;;;;;;;;;11.61;81.19;94239.22;5115284;28;1898;-61
2023/12/14 10:32:40;;;;;;;;;;;;;;;11.59;82.22;94233.22;5115465;27;1076;-61
2023/12/14 10:35:07;;;;;;;;;;;;;;;11.67;80.17;94243.81;5115360;28;972;-62
2023/12/14 10:37:37;;;;;;;;;;;;;;;11.73;80.03;94244.88;5115330;28;1035;-61
2023/12/14 10:40:05;;;;;;;;;;;;;;;11.77;81.07;94231.94;5115493;28;1188;-61
2023/12/14 10:42:31;;;;;;;;;;;;;;;11.76;81.18;94238.31;5115481;28;983;-61
2023/12/14 10:44:59;;;;;;;;;;;;;;;11.81;79.54;94247.44;5115263;28;1006;-62
2023/12/14 10:47:26;;;;;;;;;;;;;;;11.83;80.00;94241.91;5115423;28;999;-62
2023/12/14 10:49:53;;;;;;;;;;;;;;;11.88;79.56;94237.63;5114833;28;1906;-62
2023/12/14 10:52:22;;;;;;;;;;;;;;;11.97;78.95;94242.88;5113726;28;1016;-61
2023/12/14 10:54:52;;;;;;;;;;;;;;;12.06;80.09;94241.72;5115037;28;1153;-60
2023/12/14 10:57:18;;;;;;;;;;;;;;;12.15;77.80;94245.13;5115077;28;999;-58
2023/12/14 10:59:44;;;;;;;;;;;;;;;12.23;78.92;94245.78;5114861;28;1036;-61
2023/12/14 11:02:11;;;;;;;;;;;;;;;12.30;78.98;94244.00;5114785;28;1011;-60
2023/12/14 11:04:56;;;;;;;;;;;;;;;12.30;78.30;94238.63;5114810;28;917;-61
2023/12/14 11:15:13;;;;;;;;;;;;;;;11.96;80.39;94234.00;5131617;27;1259;-60
2023/12/14 11:17:40;;;;;;;;;;;;;;;12.17;80.72;94243.88;5131684;27;988;-59
2023/12/14 11:20:24;;;;;;;;;;;;;;;12.25;80.50;94241.06;5131669;27;981;-59
2023/12/14 11:22:51;;;;;;;;;;;;;;;12.39;77.80;94233.16;5131726;27;1051;-59
2023/12/14 11:25:17;;;;;;;;;;;;;;;12.57;76.54;94225.44;5131262;27;1016;-59
2023/12/14 11:27:43;;;;;;;;;;;;;;;12.68;77.27;94235.59;5131555;28;1082;-59
2023/12/14 11:30:11;;;;;;;;;;;;;;;12.73;79.07;94234.19;5131337;27;1079;-59
2023/12/14 11:32:37;;;;;;;;;;;;;;;12.76;79.19;94231.13;5131353;27;1012;-59
2023/12/14 11:35:03;;;;;;;;;;;;;;;12.82;79.25;94225.78;5131153;27;1988;-59
2023/12/14 11:37:30;;;;;;;;;;;;;;;12.82;79.01;94225.78;5131137;27;972;-60
2023/12/14 11:39:56;;;;;;;;;;;;;;;12.91;76.80;94221.09;5130985;28;1044;-60
2023/12/14 11:42:22;;;;;;;;;;;;;;;13.09;74.62;94215.22;5131300;27;965;-60
2023/12/14 11:44:48;;;;;;;;;;;;;;;13.21;74.35;94216.28;5130997;28;1048;-57
2023/12/14 11:47:14;;;;;;;;;;;;;;;13.22;77.28;94219.78;5131222;27;921;-58
2023/12/14 11:49:40;;;;;;;;;;;;;;;13.21;77.48;94218.97;5131005;27;1068;-58
2023/12/14 11:52:06;;;;;;;;;;;;;;;13.25;76.24;94219.41;5131274;28;1040;-57
2023/12/14 11:54:32;;;;;;;;;;;;;;;13.25;76.27;94214.84;5130564;28;1988;-58
2023/12/14 11:57:01;;;;;;;;;;;;;;;13.27;76.00;94211.97;5131032;27;1007;-57
2023/12/14 11:59:28;;;;;;;;;;;;;;;13.23;75.68;94205.34;5130676;27;1036;-58
2023/12/14 12:02:03;;;;;;;;;;;;;;;13.25;76.62;94209.50;5130723;27;1083;-58
2023/12/14 12:04:29;;;;;;;;;;;;;;;13.34;77.17;94212.88;5130735;27;1032;-58
2023/12/14 12:07:01;;;;;;;;;;;;;;;13.33;76.06;94211.19;5130623;27;1028;-57
2023/12/14 12:09:35;;;;;;;;;;;;;;;13.32;76.55;94209.56;5130543;27;1205;-58
2023/12/14 12:12:01;;;;;;;;;;;;;;;13.25;76.53;94214.03;5130918;27;968;-57
2023/12/14 12:14:27;;;;;;;;;;;;;;;13.03;78.27;94222.22;5130268;27;1909;-59
2023/12/14 12:16:53;;;;;;;;;;;;;;;12.89;79.71;94225.84;5130697;27;980;-60
2023/12/14 12:19:19;;;;;;;;;;;;;;;12.84;79.78;94226.44;5130677;28;1051;-60
2023/12/14 12:21:45;;;;;;;;;;;;;;;12.75;80.74;94218.72;5130218;28;1068;-60
2023/12/14 12:24:11;;;;;;;;;;;;;;;12.66;81.10;94224.25;5130445;28;1020;-60
2023/12/14 12:26:37;;;;;;;;;;;;;;;12.73;80.49;94220.78;5116844;28;999;-59
2023/12/14 12:29:05;;;;;;;;;;;;;;;12.77;80.19;94219.38;5116734;28;1006;-60
2023/12/14 12:31:33;;;;;;;;;;;;;;;12.72;80.46;94222.63;5116743;28;984;-60
2023/12/14 12:33:59;;;;;;;;;;;;;;;12.73;80.64;94220.78;5116366;28;1909;-60
2023/12/14 12:36:25;;;;;;;;;;;;;;;12.73;80.56;94215.41;5116235;28;1028;-59
2023/12/14 12:38:51;;;;;;;;;;;;;;;12.74;81.86;94217.91;5116641;28;1035;-60
2023/12/14 12:41:17;;;;;;;;;;;;;;;12.78;80.92;94221.03;5116400;28;1010;-60
2023/12/14 12:43:43;;;;;;;;;;;;;;;12.73;81.27;94218.94;5116376;28;969;-60
2023/12/14 12:46:09;;;;;;;;;;;;;;;12.73;80.60;94226.16;5116196;28;1017;-60
2023/12/14 12:48:36;;;;;;;;;;;;;;;12.72;80.71;94230.69;5116169;28;1111;-60
2023/12/14 12:51:02;;;;;;;;;;;;;;;12.80;79.54;94229.69;5116090;28;1030;-60
2023/12/14 12:53:28;;;;;;;;;;;;;;;12.83;79.00;94226.63;5116262;28;1910;-60
2023/12/14 12:55:54;;;;;;;;;;;;;;;12.86;77.01;94239.63;5116215;28;1221;-59
2023/12/14 12:58:20;;;;;;;;;;;;;;;12.80;78.17;94238.56;5115887;28;1075;-59
2023/12/14 13:00:46;;;;;;;;;;;;;;;12.80;78.77;94243.94;5115962;28;1032;-60
2023/12/14 13:03:12;;;;;;;;;;;;;;;12.85;78.14;94246.88;5115794;28;1153;-59
2023/12/14 13:05:38;;;;;;;;;;;;;;;12.87;78.06;94233.25;5115743;28;984;-60
2023/12/14 13:08:05;;;;;;;;;;;;;;;12.84;79.74;94230.97;5116089;28;1059;-59